createdAt,value
2022-10-09T00:01:12.282Z,96737.52
2022-10-09T00:03:42.906Z,96740.46
2022-10-09T00:06:12.288Z,96747.92
2022-10-09T00:08:40.732Z,96743.43
2022-10-09T00:11:09.723Z,96746.23
2022-10-09T00:13:38.199Z,96755.05
2022-10-09T00:16:07.696Z,96757.04
2022-10-09T00:18:36.072Z,96759.32
2022-10-09T00:21:04.964Z,96760.14
2022-10-09T00:23:33.050Z,96760.98
2022-10-09T00:26:01.801Z,96757.01
2022-10-09T00:28:35.309Z,96754.87
2022-10-09T00:31:09.065Z,96764.22
2022-10-09T00:33:37.739Z,96766.54
2022-10-09T00:36:06.826Z,96772.05
2022-10-09T00:38:34.829Z,96774.42
2022-10-09T00:41:02.688Z,96767.45
2022-10-09T00:43:53.520Z,96763.05
2022-10-09T00:46:51.487Z,96769.17
2022-10-09T00:49:27.190Z,96764.92
2022-10-09T00:51:56.874Z,96769.83
2022-10-09T00:54:27.385Z,96774.67
2022-10-09T00:56:55.799Z,96776.20
2022-10-09T00:59:24.427Z,96779.60
2022-10-09T01:01:52.956Z,96781.24
2022-10-09T01:04:21.431Z,96780.77
2022-10-09T01:06:49.426Z,96779.29
2022-10-09T01:09:23.644Z,96780.89
2022-10-09T01:12:00.987Z,96780.96
2022-10-09T01:14:32.482Z,96779.23
2022-10-09T01:17:00.467Z,96779.80
2022-10-09T01:19:49.319Z,96783.05
2022-10-09T01:22:23.105Z,96788.23
2022-10-09T01:24:54.879Z,96787.02
2022-10-09T01:27:26.390Z,96789.85
2022-10-09T01:30:02.119Z,96790.98
2022-10-09T01:32:35.271Z,96800.27
2022-10-09T01:35:05.848Z,96807.30
2022-10-09T01:37:35.353Z,96807.91
2022-10-09T01:40:05.066Z,96809.11
2022-10-09T01:42:33.784Z,96812.44
2022-10-09T01:45:01.899Z,96818.57
2022-10-09T01:47:30.069Z,96820.32
2022-10-09T01:50:09.257Z,96818.98
2022-10-09T01:52:55.865Z,96820.43
2022-10-09T01:55:23.962Z,96828.64
2022-10-09T01:58:01.287Z,96830.09
2022-10-09T02:00:32.552Z,96836.05
2022-10-09T02:03:01.249Z,96835.73
2022-10-09T02:05:30.494Z,96836.46
2022-10-09T02:07:59.650Z,96843.02
2022-10-09T02:10:28.383Z,96849.73
2022-10-09T02:12:57.769Z,96849.16
2022-10-09T02:15:35.050Z,96849.39
2022-10-09T02:18:08.334Z,96851.10
2022-10-09T02:20:39.016Z,96859.41
2022-10-09T02:23:08.206Z,96863.05
2022-10-09T02:25:36.476Z,96862.09
2022-10-09T02:28:04.775Z,96860.77
2022-10-09T02:30:44.369Z,96859.81
2022-10-09T02:33:13.394Z,96863.31
2022-10-09T02:35:41.896Z,96866.09
2022-10-09T02:38:09.963Z,96867.29
2022-10-09T02:40:37.965Z,96870.17
2022-10-09T02:43:06.035Z,96877.20
2022-10-09T02:45:33.975Z,96877.86
2022-10-09T02:48:01.954Z,96878.92
2022-10-09T02:50:30.006Z,96886.59
2022-10-09T02:52:58.005Z,96886.78
2022-10-09T02:55:26.122Z,96886.96
2022-10-09T02:57:54.154Z,96888.13
2022-10-09T03:00:22.183Z,96893.77
2022-10-09T03:02:50.524Z,96893.24
2022-10-09T03:05:18.623Z,96903.02
2022-10-09T03:07:51.462Z,96905.16
2022-10-09T03:10:20.229Z,96906.04
2022-10-09T03:12:48.821Z,96908.12
2022-10-09T03:15:17.081Z,96911.81
2022-10-09T03:17:45.092Z,96912.26
2022-10-09T03:20:13.182Z,96912.91
2022-10-09T03:22:41.239Z,96918.39
2022-10-09T03:25:09.263Z,96920.23
2022-10-09T03:27:37.415Z,96923.71
2022-10-09T03:30:05.874Z,96927.27
2022-10-09T03:32:33.914Z,96929.05
2022-10-09T03:35:01.861Z,96932.54
2022-10-09T03:37:30.103Z,96934.86
2022-10-09T03:39:58.771Z,96937.60
2022-10-09T03:42:26.838Z,96934.98
2022-10-09T03:44:54.901Z,96934.65
2022-10-09T03:47:22.850Z,96938.95
2022-10-09T03:49:50.866Z,96940.81
2022-10-09T03:52:18.776Z,96938.95
2022-10-09T03:54:46.835Z,96940.79
2022-10-09T03:57:14.962Z,96944.68
2022-10-09T03:59:43.016Z,96943.40
2022-10-09T04:02:11.094Z,96946.87
2022-10-09T04:04:39.199Z,96949.05
2022-10-09T04:07:07.168Z,96949.18
2022-10-09T04:09:35.155Z,96950.69
2022-10-09T04:12:03.226Z,96957.15
2022-10-09T04:14:31.104Z,96954.60
2022-10-09T04:16:59.092Z,96954.15
2022-10-09T04:19:27.154Z,96951.34
2022-10-09T04:21:55.780Z,96951.91
2022-10-09T04:24:23.830Z,96958.50
2022-10-09T04:26:52.086Z,96960.85
2022-10-09T04:29:20.165Z,96960.14
2022-10-09T04:31:48.450Z,96961.04
2022-10-09T04:34:16.372Z,96965.14
2022-10-09T04:36:44.422Z,96967.53
2022-10-09T04:39:12.822Z,96969.83
2022-10-09T04:41:40.864Z,96974.44
2022-10-09T04:44:08.848Z,96977.05
2022-10-09T04:46:36.759Z,96984.15
2022-10-09T04:49:04.706Z,96985.70
2022-10-09T04:51:33.098Z,96987.88
2022-10-09T04:54:01.034Z,96991.26
2022-10-09T04:56:29.124Z,96990.90
2022-10-09T04:58:57.160Z,96997.48
2022-10-09T05:01:26.669Z,97003.11
2022-10-09T05:03:55.220Z,96999.45
2022-10-09T05:06:23.853Z,97003.59
2022-10-09T05:08:52.116Z,97004.19
2022-10-09T05:11:24.678Z,97008.10
2022-10-09T05:13:54.468Z,97010.34
2022-10-09T05:16:24.437Z,97016.23
2022-10-09T05:18:54.163Z,97017.20
2022-10-09T05:21:24.293Z,97017.65
2022-10-09T05:23:54.034Z,97019.63
2022-10-09T05:26:23.808Z,97018.69
2022-10-09T05:28:52.134Z,97021.25
2022-10-09T05:31:38.078Z,97019.46
2022-10-09T05:34:06.242Z,97023.89
2022-10-09T05:36:34.398Z,97029.38
2022-10-09T05:39:02.471Z,97029.52
2022-10-09T05:41:31.245Z,97031.33
2022-10-09T05:44:03.241Z,97034.17
2022-10-09T05:46:31.473Z,97040.31
2022-10-09T05:49:00.762Z,97044.07
2022-10-09T05:51:30.494Z,97044.51
2022-10-09T05:53:59.217Z,97048.31
2022-10-09T05:56:27.194Z,97051.54
2022-10-09T05:58:57.105Z,97055.14
2022-10-09T06:01:26.910Z,97057.23
2022-10-09T06:03:56.264Z,97062.92
2022-10-09T06:06:25.342Z,97068.00
2022-10-09T06:08:53.737Z,97074.52
2022-10-09T06:11:23.266Z,97078.60
2022-10-09T06:13:51.651Z,97087.78
2022-10-09T06:16:19.749Z,97090.79
2022-10-09T06:18:49.311Z,97095.96
2022-10-09T06:21:17.867Z,97099.69
2022-10-09T06:23:49.410Z,97100.51
2022-10-09T06:26:19.058Z,97106.52
2022-10-09T06:28:47.899Z,97111.21
2022-10-09T06:31:18.410Z,97112.44
2022-10-09T06:33:47.319Z,97111.77
2022-10-09T06:36:16.684Z,97112.51
2022-10-09T06:38:44.757Z,97110.98
2022-10-09T06:41:14.235Z,97111.61
2022-10-09T06:43:42.926Z,97114.83
2022-10-09T06:46:12.320Z,97122.02
2022-10-09T06:48:40.539Z,97129.05
2022-10-09T06:51:10.392Z,97129.54
2022-10-09T06:53:39.837Z,97134.65
2022-10-09T06:56:08.934Z,97139.99
2022-10-09T06:58:37.616Z,97133.98
2022-10-09T07:01:05.706Z,97139.55
2022-10-09T07:03:34.875Z,97142.64
2022-10-09T07:06:19.861Z,97139.87
2022-10-09T07:08:49.677Z,97135.42
2022-10-09T07:11:27.960Z,97140.48
2022-10-09T07:13:57.071Z,97143.04
2022-10-09T07:16:29.367Z,97142.03
2022-10-09T07:18:58.239Z,97143.02
2022-10-09T07:21:26.571Z,97145.40
2022-10-09T07:23:54.612Z,97147.27
2022-10-09T07:26:24.922Z,97150.92
2022-10-09T07:28:53.517Z,97152.70
2022-10-09T07:31:23.132Z,97157.02
2022-10-09T07:33:51.869Z,97160.70
2022-10-09T07:36:20.357Z,97169.27
2022-10-09T07:38:52.966Z,97174.42
2022-10-09T07:41:22.609Z,97169.42
2022-10-09T07:43:51.319Z,97170.64
2022-10-09T07:46:20.159Z,97169.42
2022-10-09T07:48:48.454Z,97169.91
2022-10-09T07:51:16.595Z,97168.21
2022-10-09T07:53:45.082Z,97168.73
2022-10-09T07:56:32.803Z,97169.19
2022-10-09T07:59:04.874Z,97170.27
2022-10-09T08:01:33.885Z,97169.92
2022-10-09T08:04:02.550Z,97170.04
2022-10-09T08:06:30.688Z,97172.88
2022-10-09T08:09:00.502Z,97176.19
2022-10-09T08:11:29.511Z,97178.42
2022-10-09T08:13:58.110Z,97178.92
2022-10-09T08:16:26.759Z,97180.59
2022-10-09T08:18:56.263Z,97182.98
2022-10-09T08:21:24.455Z,97179.52
2022-10-09T08:23:53.621Z,97178.92
2022-10-09T08:26:22.515Z,97181.77
2022-10-09T08:28:51.715Z,97187.41
2022-10-09T08:31:20.179Z,97189.80
2022-10-09T08:33:51.421Z,97192.11
2022-10-09T08:36:19.900Z,97192.52
2022-10-09T08:38:48.557Z,97197.94
2022-10-09T08:41:21.532Z,97196.71
2022-10-09T08:43:52.226Z,97201.84
2022-10-09T08:46:29.491Z,97202.71
2022-10-09T08:48:58.466Z,97203.98
2022-10-09T08:51:28.346Z,97207.55
2022-10-09T08:54:04.177Z,97212.33
2022-10-09T08:56:33.673Z,97210.43
2022-10-09T08:59:02.215Z,97212.08
2022-10-09T09:01:35.282Z,97210.81
2022-10-09T09:04:09.562Z,97212.26
2022-10-09T09:07:00.963Z,97214.85
2022-10-09T09:09:39.531Z,97219.11
2022-10-09T09:12:10.490Z,97214.83
2022-10-09T09:14:59.594Z,97215.41
2022-10-09T09:17:33.391Z,97216.45
2022-10-09T09:20:04.183Z,97216.64
2022-10-09T09:22:32.667Z,97216.89
2022-10-09T09:25:01.368Z,97220.17
2022-10-09T09:27:33.905Z,97220.67
2022-10-09T09:30:04.385Z,97219.18
2022-10-09T09:32:33.179Z,97218.10
2022-10-09T09:35:24.526Z,97222.34
2022-10-09T09:37:53.446Z,97223.26
2022-10-09T09:40:36.177Z,97222.07
2022-10-09T09:43:16.904Z,97219.34
2022-10-09T09:45:45.498Z,97223.92
2022-10-09T09:48:17.616Z,97224.09
2022-10-09T09:50:59.907Z,97227.64
2022-10-09T09:53:43.848Z,97224.10
2022-10-09T09:56:11.800Z,97224.02
2022-10-09T09:58:44.995Z,97224.27
2022-10-09T10:01:22.254Z,97223.71
2022-10-09T10:03:53.027Z,97225.77
2022-10-09T10:06:22.310Z,97223.46
2022-10-09T10:09:00.781Z,97223.46
2022-10-09T10:11:29.483Z,97213.27
2022-10-09T10:13:57.802Z,97214.73
2022-10-09T10:16:27.541Z,97212.75
2022-10-09T10:18:56.759Z,97211.70
2022-10-09T10:21:24.911Z,97210.90
2022-10-09T10:23:58.595Z,97210.92
2022-10-09T10:26:32.202Z,97212.10
2022-10-09T10:29:10.658Z,97211.30
2022-10-09T10:31:44.546Z,97211.98
2022-10-09T10:34:19.476Z,97214.27
2022-10-09T10:36:49.036Z,97214.10
2022-10-09T10:39:31.744Z,97211.92
2022-10-09T10:42:02.894Z,97212.67
2022-10-09T10:44:47.591Z,97213.98
2022-10-09T10:47:18.594Z,97217.84
2022-10-09T10:49:46.660Z,97218.77
2022-10-09T10:52:25.427Z,97213.77
2022-10-09T10:55:16.784Z,97214.39
2022-10-09T10:58:03.596Z,97213.42
2022-10-09T11:00:36.203Z,97209.98
2022-10-09T11:03:13.276Z,97207.27
2022-10-09T11:05:41.228Z,97210.65
2022-10-09T11:08:09.353Z,97205.16
2022-10-09T11:10:52.827Z,97205.81
2022-10-09T11:13:29.735Z,97212.57
2022-10-09T11:16:24.191Z,97213.14
2022-10-09T11:19:01.661Z,97211.57
2022-10-09T11:21:45.131Z,97206.77
2022-10-09T11:24:16.020Z,97208.50
2022-10-09T11:26:54.592Z,97207.39
2022-10-09T11:29:25.980Z,97203.35
2022-10-09T11:31:58.048Z,97199.56
2022-10-09T11:34:32.543Z,97202.84
2022-10-09T11:37:01.543Z,97200.90
2022-10-09T11:39:33.285Z,97199.81
2022-10-09T11:42:01.285Z,97201.86
2022-10-09T11:44:35.498Z,97200.98
2022-10-09T11:47:09.528Z,97196.73
2022-10-09T11:49:41.028Z,97200.18
2022-10-09T11:52:08.982Z,97195.00
2022-10-09T11:54:37.340Z,97192.73
2022-10-09T11:57:06.624Z,97187.98
2022-10-09T11:59:36.670Z,97183.01
2022-10-09T12:02:20.190Z,97180.75
2022-10-09T12:04:55.902Z,97179.65
2022-10-09T12:07:44.045Z,97179.46
2022-10-09T12:10:47.829Z,97177.44
2022-10-09T12:13:34.710Z,97178.84
2022-10-09T12:16:03.165Z,97176.74
2022-10-09T12:18:44.414Z,97172.33
2022-10-09T12:21:22.279Z,97169.76
2022-10-09T12:23:51.469Z,97169.91
2022-10-09T12:26:21.012Z,97169.56
2022-10-09T12:28:51.448Z,97173.95
2022-10-09T12:31:22.583Z,97175.42
2022-10-09T12:33:56.144Z,97178.88
2022-10-09T12:36:26.165Z,97175.61
2022-10-09T12:38:54.556Z,97176.13
2022-10-09T12:41:27.026Z,97175.54
2022-10-09T12:43:56.540Z,97171.95
2022-10-09T12:46:30.616Z,97171.70
2022-10-09T12:48:59.699Z,97169.14
2022-10-09T12:51:29.644Z,97170.44
2022-10-09T12:53:57.802Z,97170.55
2022-10-09T12:56:30.683Z,97174.58
2022-10-09T12:59:00.760Z,97174.88
2022-10-09T13:01:29.497Z,97170.77
2022-10-09T13:03:59.472Z,97173.50
2022-10-09T13:06:38.714Z,97172.61
2022-10-09T13:09:08.122Z,97169.40
2022-10-09T13:11:38.124Z,97167.43
2022-10-09T13:14:06.579Z,97167.11
2022-10-09T13:16:45.004Z,97164.73
2022-10-09T13:19:24.507Z,97170.95
2022-10-09T13:22:11.243Z,97171.87
2022-10-09T13:24:39.406Z,97174.86
2022-10-09T13:27:07.437Z,97176.60
2022-10-09T13:29:35.464Z,97179.22
2022-10-09T13:32:03.524Z,97175.31
2022-10-09T13:34:31.657Z,97176.83
2022-10-09T13:36:59.883Z,97177.00
2022-10-09T13:39:28.124Z,97174.15
2022-10-09T13:41:57.978Z,97171.33
2022-10-09T13:44:29.076Z,97171.44
2022-10-09T13:46:57.435Z,97170.91
2022-10-09T13:49:25.415Z,97167.15
2022-10-09T13:51:53.633Z,97162.86
2022-10-09T13:54:21.739Z,97160.81
2022-10-09T13:56:49.833Z,97160.00
2022-10-09T13:59:18.332Z,97159.87
2022-10-09T14:01:46.584Z,97158.02
2022-10-09T14:04:15.008Z,97155.41
2022-10-09T14:06:43.073Z,97156.34
2022-10-09T14:09:11.223Z,97153.98
2022-10-09T14:11:39.197Z,97147.86
2022-10-09T14:14:07.138Z,97149.95
2022-10-09T14:16:35.214Z,97149.24
2022-10-09T14:19:04.043Z,97145.77
2022-10-09T14:21:32.619Z,97151.50
2022-10-09T14:24:01.874Z,97151.88
2022-10-09T14:26:30.508Z,97153.21
2022-10-09T14:28:59.972Z,97155.58
2022-10-09T14:31:28.525Z,97154.89
2022-10-09T14:33:58.043Z,97149.66
2022-10-09T14:36:26.853Z,97145.43
2022-10-09T14:38:55.946Z,97150.09
2022-10-09T14:41:23.856Z,97147.91
2022-10-09T14:43:56.817Z,97146.98
2022-10-09T14:46:26.088Z,97151.54
2022-10-09T14:48:55.255Z,97144.92
2022-10-09T14:51:25.004Z,97143.77
2022-10-09T14:53:56.094Z,97144.17
2022-10-09T14:56:24.550Z,97143.67
2022-10-09T14:58:52.838Z,97145.08
2022-10-09T15:01:22.772Z,97143.21
2022-10-09T15:03:50.872Z,97142.56
2022-10-09T15:06:25.639Z,97135.79
2022-10-09T15:09:03.209Z,97133.70
2022-10-09T15:11:35.026Z,97137.71
2022-10-09T15:14:03.889Z,97135.16
2022-10-09T15:16:32.040Z,97136.54
2022-10-09T15:19:00.210Z,97133.06
2022-10-09T15:21:29.975Z,97135.09
2022-10-09T15:23:59.053Z,97136.42
2022-10-09T15:26:28.435Z,97137.58
2022-10-09T15:28:56.647Z,97138.60
2022-10-09T15:31:25.405Z,97144.14
2022-10-09T15:33:54.734Z,97140.89
2022-10-09T15:36:23.414Z,97140.16
2022-10-09T15:38:51.383Z,97144.20
2022-10-09T15:41:21.287Z,97143.36
2022-10-09T15:43:49.719Z,97140.64
2022-10-09T15:46:18.150Z,97139.49
2022-10-09T15:48:46.440Z,97138.00
2022-10-09T15:51:14.866Z,97132.11
2022-10-09T15:53:43.981Z,97131.73
2022-10-09T15:56:13.760Z,97131.56
2022-10-09T15:58:42.651Z,97137.09
2022-10-09T16:01:12.651Z,97138.67
2022-10-09T16:03:40.861Z,97139.64
2022-10-09T16:06:10.373Z,97141.46
2022-10-09T16:08:39.087Z,97143.05
2022-10-09T16:13:46.081Z,97143.85
2022-10-09T16:16:16.590Z,97150.30
2022-10-09T16:18:45.162Z,97152.89
2022-10-09T16:21:18.603Z,97158.20
2022-10-09T16:23:46.680Z,97158.19
2022-10-09T16:26:15.880Z,97155.61
2022-10-09T16:28:46.582Z,97155.92
2022-10-09T16:31:22.457Z,97160.79
2022-10-09T16:33:50.958Z,97166.61
2022-10-09T16:36:19.046Z,97168.01
2022-10-09T16:38:47.094Z,97170.35
2022-10-09T16:41:19.738Z,97170.48
2022-10-09T16:43:50.143Z,97175.13
2022-10-09T16:46:26.001Z,97177.14
2022-10-09T16:48:55.107Z,97176.55
2022-10-09T16:51:24.672Z,97175.77
2022-10-09T16:53:53.494Z,97173.86
2022-10-09T16:56:23.186Z,97176.23
2022-10-09T16:58:54.637Z,97176.48
2022-10-09T17:01:23.289Z,97179.95
2022-10-09T17:03:53.072Z,97177.30
2022-10-09T17:06:23.929Z,97179.02
2022-10-09T17:08:56.215Z,97185.55
2022-10-09T17:11:25.860Z,97183.95
2022-10-09T17:13:56.912Z,97184.95
2022-10-09T17:16:27.819Z,97187.67
2022-10-09T17:18:56.403Z,97185.42
2022-10-09T17:21:27.812Z,97187.20
2022-10-09T17:24:00.418Z,97188.32
2022-10-09T17:26:28.944Z,97190.45
2022-10-09T17:28:58.268Z,97190.99
2022-10-09T17:31:42.796Z,97193.55
2022-10-09T17:34:11.776Z,97194.52
2022-10-09T17:36:41.249Z,97194.75
2022-10-09T17:39:11.840Z,97197.54
2022-10-09T17:41:39.797Z,97192.61
2022-10-09T17:44:07.738Z,97195.40
2022-10-09T17:46:35.869Z,97194.25
2022-10-09T17:49:05.108Z,97196.98
2022-10-09T17:51:34.695Z,97202.08
2022-10-09T17:54:11.747Z,97200.13
2022-10-09T17:56:40.230Z,97200.97
2022-10-09T17:59:08.576Z,97202.84
2022-10-09T18:01:36.474Z,97201.23
2022-10-09T18:04:04.458Z,97197.54
2022-10-09T18:06:33.394Z,97201.88
2022-10-09T18:09:03.080Z,97203.23
2022-10-09T18:11:31.129Z,97202.70
2022-10-09T18:13:59.348Z,97204.90
2022-10-09T18:16:36.350Z,97202.48
2022-10-09T18:19:14.041Z,97206.64
2022-10-09T18:21:44.911Z,97208.84
2022-10-09T18:24:13.471Z,97206.02
2022-10-09T18:26:42.411Z,97203.16
2022-10-09T18:29:10.407Z,97207.39
2022-10-09T18:31:38.730Z,97212.11
2022-10-09T18:34:06.570Z,97212.75
2022-10-09T18:36:35.050Z,97213.42
2022-10-09T18:39:07.743Z,97216.12
2022-10-09T18:41:36.804Z,97217.95
2022-10-09T18:44:05.367Z,97221.66
2022-10-09T18:46:37.993Z,97224.54
2022-10-09T18:49:10.358Z,97229.05
2022-10-09T18:51:40.161Z,97223.92
2022-10-09T18:54:08.518Z,97227.84
2022-10-09T18:56:36.738Z,97230.05
2022-10-09T18:59:07.192Z,97232.05
2022-10-09T19:01:35.258Z,97239.05
2022-10-09T19:04:03.644Z,97238.64
2022-10-09T19:06:31.766Z,97238.06
2022-10-09T19:09:01.045Z,97235.45
2022-10-09T19:11:30.227Z,97238.51
2022-10-09T19:14:02.042Z,97239.88
2022-10-09T19:16:31.164Z,97236.59
2022-10-09T19:18:59.600Z,97239.28
2022-10-09T19:21:27.392Z,97239.30
2022-10-09T19:23:55.769Z,97241.37
2022-10-09T19:26:23.832Z,97237.95
2022-10-09T19:28:52.317Z,97239.27
2022-10-09T19:31:20.501Z,97240.11
2022-10-09T19:33:48.325Z,97241.08
2022-10-09T19:36:16.197Z,97239.80
2022-10-09T19:38:44.892Z,97240.83
2022-10-09T19:41:14.239Z,97237.04
2022-10-09T19:43:42.428Z,97237.27
2022-10-09T19:46:12.046Z,97236.44
2022-10-09T19:48:40.516Z,97231.61
2022-10-09T19:51:09.973Z,97232.39
2022-10-09T19:53:40.561Z,97235.81
2022-10-09T19:56:15.319Z,97236.05
2022-10-09T19:58:43.893Z,97234.69
2022-10-09T20:01:19.355Z,97240.48
2022-10-09T20:03:47.772Z,97239.31
2022-10-09T20:06:15.648Z,97240.48
2022-10-09T20:08:45.435Z,97240.33
2022-10-09T20:11:16.828Z,97239.77
2022-10-09T20:13:44.668Z,97243.61
2022-10-09T20:16:20.978Z,97242.54
2022-10-09T20:18:48.894Z,97243.44
2022-10-09T20:21:17.785Z,97246.55
2022-10-09T20:23:46.016Z,97244.83
2022-10-09T20:26:19.175Z,97237.73
2022-10-09T20:28:47.374Z,97238.67
2022-10-09T20:31:19.620Z,97235.65
2022-10-09T20:33:48.700Z,97231.34
2022-10-09T20:36:31.377Z,97239.35
2022-10-09T20:39:00.059Z,97237.55
2022-10-09T20:41:29.132Z,97226.37
2022-10-09T20:44:00.135Z,97222.40
2022-10-09T20:46:29.691Z,97220.39
2022-10-09T20:48:58.022Z,97225.46
2022-10-09T20:51:26.127Z,97222.70
2022-10-09T20:53:56.200Z,97223.94
2022-10-09T20:56:25.557Z,97225.06
2022-10-09T20:58:54.152Z,97220.89
2022-10-09T21:01:22.570Z,97218.13
2022-10-09T21:03:50.779Z,97221.91
2022-10-09T21:06:19.655Z,97226.88
2022-10-09T21:08:47.639Z,97229.41
2022-10-09T21:11:17.264Z,97226.62
2022-10-09T21:13:45.571Z,97223.70
2022-10-09T21:16:15.363Z,97225.70
2022-10-09T21:18:43.165Z,97223.30
2022-10-09T21:21:12.659Z,97225.35
2022-10-09T21:23:40.604Z,97221.25
2022-10-09T21:26:17.716Z,97226.50
2022-10-09T21:28:46.633Z,97226.86
2022-10-09T21:31:26.423Z,97225.08
2022-10-09T21:33:54.643Z,97225.90
2022-10-09T21:36:22.487Z,97226.23
2022-10-09T21:38:50.247Z,97228.10
2022-10-09T21:41:18.113Z,97224.91
2022-10-09T21:43:46.583Z,97222.61
2022-10-09T21:46:14.395Z,97221.23
2022-10-09T21:48:42.229Z,97227.58
2022-10-09T21:51:10.108Z,97228.11
2022-10-09T21:53:37.962Z,97227.13
2022-10-09T21:56:06.401Z,97230.57
2022-10-09T21:58:34.192Z,97235.45
2022-10-09T22:01:02.581Z,97235.68
2022-10-09T22:03:31.701Z,97233.58
2022-10-09T22:05:59.594Z,97240.66
2022-10-09T22:08:27.662Z,97236.23
2022-10-09T22:10:55.548Z,97234.59
2022-10-09T22:13:23.385Z,97235.48
2022-10-09T22:15:51.561Z,97233.09
2022-10-09T22:18:19.594Z,97231.02
2022-10-09T22:20:49.350Z,97229.02
2022-10-09T22:23:18.584Z,97237.16
2022-10-09T22:26:06.717Z,97232.73
2022-10-09T22:28:34.766Z,97232.42
2022-10-09T22:31:04.637Z,97230.75
2022-10-09T22:33:32.593Z,97229.05
2022-10-09T22:36:26.696Z,97226.14
2022-10-09T22:38:55.541Z,97227.72
2022-10-09T22:41:23.962Z,97224.59
2022-10-09T22:43:53.703Z,97226.06
2022-10-09T22:46:23.361Z,97223.10
2022-10-09T22:48:51.387Z,97219.08
2022-10-09T22:51:20.176Z,97219.84
2022-10-09T22:53:48.653Z,97218.88
2022-10-09T22:56:20.962Z,97220.33
2022-10-09T22:58:49.770Z,97221.42
2022-10-09T23:01:22.525Z,97210.46
2022-10-09T23:03:50.511Z,97212.22
2022-10-09T23:06:19.663Z,97219.36
2022-10-09T23:08:48.204Z,97217.88
2022-10-09T23:11:16.867Z,97219.42
2022-10-09T23:13:45.096Z,97221.16
2022-10-09T23:16:13.952Z,97217.21
2022-10-09T23:18:42.494Z,97214.83
2022-10-09T23:21:14.730Z,97214.34
2022-10-09T23:23:43.586Z,97219.02
2022-10-09T23:26:13.184Z,97223.09
2022-10-09T23:28:41.264Z,97215.41
2022-10-09T23:31:10.410Z,97221.13
2022-10-09T23:33:39.691Z,97219.13
2022-10-09T23:36:08.430Z,97216.29
2022-10-09T23:38:36.582Z,97216.55
2022-10-09T23:41:05.994Z,97218.69
2022-10-09T23:43:34.784Z,97214.33
2022-10-09T23:46:04.181Z,97213.02
2022-10-09T23:48:32.151Z,97212.58
2022-10-09T23:50:59.957Z,97204.60
2022-10-09T23:53:27.853Z,97204.05
2022-10-09T23:55:55.610Z,97199.67
2022-10-09T23:58:23.423Z,97195.56
